Time;durP1;ratioP1;P1;durP2;ratioP2;P2;SDS_P1;SDS_P2;PMS_P1;PMS_P2;Temp;Humidity;BMP_temperature;BMP_pressure;BME280_temperature;BME280_humidity;BME280_pressure;Samples;Min_cycle;Max_cycle;Signal;HPM_P1;HPM_P2
2021/09/08 00:00:53;;;;;;;;;;;19.70;65.90;;;;;;494982;240;1075;-67
2021/09/08 00:02:54;;;;;;;;;;;19.70;66.00;;;;;;494937;240;1074;-67
2021/09/08 00:04:56;;;;;;;;;;;19.80;65.70;;;;;;494997;240;2155;-67
2021/09/08 00:06:57;;;;;;;;;;;19.80;65.70;;;;;;495148;240;1211;-67
2021/09/08 00:08:58;;;;;;;;;;;19.80;65.90;;;;;;494918;240;1067;-67
2021/09/08 00:10:59;;;;;;;;;;;19.70;65.90;;;;;;494882;240;1073;-67
2021/09/08 00:13:01;;;;;;;;;;;19.60;66.00;;;;;;494865;240;1034;-67
2021/09/08 00:15:03;;;;;;;;;;;19.70;66.10;;;;;;494984;240;1104;-67
2021/09/08 00:17:04;;;;;;;;;;;19.60;66.20;;;;;;494921;240;1043;-67
2021/09/08 00:19:05;;;;;;;;;;;19.70;66.10;;;;;;495223;240;1284;-67
2021/09/08 00:21:07;;;;;;;;;;;19.70;65.90;;;;;;495089;240;1049;-67
2021/09/08 00:23:08;;;;;;;;;;;19.70;66.10;;;;;;495226;240;1066;-67
2021/09/08 00:25:09;;;;;;;;;;;19.60;66.10;;;;;;495001;240;2194;-67
2021/09/08 00:27:11;;;;;;;;;;;19.60;66.20;;;;;;494962;240;1241;-67
2021/09/08 00:29:12;;;;;;;;;;;19.70;66.10;;;;;;494984;240;1121;-67
2021/09/08 00:31:13;;;;;;;;;;;19.70;66.00;;;;;;494942;240;1201;-67
2021/09/08 00:33:14;;;;;;;;;;;19.90;65.30;;;;;;494965;240;1104;-67
2021/09/08 00:35:16;;;;;;;;;;;20.00;64.80;;;;;;495014;240;1177;-67
2021/09/08 00:37:17;;;;;;;;;;;20.20;64.20;;;;;;494946;240;1059;-67
2021/09/08 00:39:18;;;;;;;;;;;20.40;63.80;;;;;;494858;240;1067;-67
2021/09/08 00:41:20;;;;;;;;;;;20.20;64.00;;;;;;495222;240;1046;-67
2021/09/08 00:43:21;;;;;;;;;;;20.10;64.50;;;;;;495071;240;1164;-67
2021/09/08 00:45:22;;;;;;;;;;;20.00;65.00;;;;;;495134;240;2187;-67
2021/09/08 00:47:24;;;;;;;;;;;19.90;65.30;;;;;;495006;240;1463;-67
2021/09/08 00:49:25;;;;;;;;;;;19.80;65.40;;;;;;494935;240;1032;-67
2021/09/08 00:51:26;;;;;;;;;;;19.80;65.60;;;;;;495196;240;1020;-67
2021/09/08 00:53:28;;;;;;;;;;;19.90;65.20;;;;;;495160;240;1144;-67
2021/09/08 00:55:29;;;;;;;;;;;20.10;64.60;;;;;;495117;240;1028;-67
2021/09/08 00:57:30;;;;;;;;;;;20.00;64.60;;;;;;494939;240;1206;-67
2021/09/08 00:59:33;;;;;;;;;;;19.90;65.00;;;;;;494970;240;1058;-67
2021/09/08 01:01:34;;;;;;;;;;;19.90;65.30;;;;;;494946;240;1424;-67
2021/09/08 01:03:35;;;;;;;;;;;19.80;65.50;;;;;;494962;240;1075;-67
2021/09/08 01:05:37;;;;;;;;;;;19.80;65.80;;;;;;495044;240;2174;-67
2021/09/08 01:07:38;;;;;;;;;;;19.70;65.90;;;;;;494966;240;1068;-67
2021/09/08 01:09:39;;;;;;;;;;;19.70;65.90;;;;;;495290;240;1104;-67
2021/09/08 01:11:41;;;;;;;;;;;19.80;65.70;;;;;;494904;240;1161;-67
2021/09/08 01:13:42;;;;;;;;;;;19.80;65.60;;;;;;495030;240;1082;-67
2021/09/08 01:15:43;;;;;;;;;;;19.70;65.70;;;;;;495048;240;1125;-67
2021/09/08 01:17:45;;;;;;;;;;;19.70;65.90;;;;;;494919;240;1300;-67
2021/09/08 01:19:46;;;;;;;;;;;19.60;66.00;;;;;;495271;240;1152;-67
2021/09/08 01:21:47;;;;;;;;;;;19.60;66.10;;;;;;494882;240;1229;-67
2021/09/08 01:23:49;;;;;;;;;;;19.60;66.20;;;;;;494917;240;1070;-67
2021/09/08 01:25:50;;;;;;;;;;;19.70;65.90;;;;;;494952;240;2147;-67
2021/09/08 01:27:51;;;;;;;;;;;19.80;65.70;;;;;;494891;240;1256;-67
2021/09/08 01:29:53;;;;;;;;;;;20.00;65.10;;;;;;494999;240;1111;-67
2021/09/08 01:31:54;;;;;;;;;;;20.10;64.50;;;;;;494866;240;1183;-67
2021/09/08 01:33:55;;;;;;;;;;;20.30;64.20;;;;;;495096;240;1167;-67
2021/09/08 01:35:57;;;;;;;;;;;20.40;63.50;;;;;;495007;240;1052;-67
2021/09/08 01:37:58;;;;;;;;;;;20.30;63.60;;;;;;495121;240;1060;-67
2021/09/08 01:40:00;;;;;;;;;;;20.20;64.10;;;;;;494916;240;1021;-67
2021/09/08 01:42:01;;;;;;;;;;;20.00;64.60;;;;;;494974;240;1149;-67
2021/09/08 01:44:02;;;;;;;;;;;19.90;65.10;;;;;;495001;240;1061;-67
2021/09/08 01:46:03;;;;;;;;;;;19.80;65.30;;;;;;495115;240;2202;-67
2021/09/08 01:48:05;;;;;;;;;;;19.80;65.60;;;;;;495376;240;1183;-67
2021/09/08 01:50:06;;;;;;;;;;;19.80;65.70;;;;;;495036;240;1189;-67
2021/09/08 01:52:07;;;;;;;;;;;19.80;65.80;;;;;;494862;240;1265;-67
2021/09/08 01:54:09;;;;;;;;;;;19.80;65.50;;;;;;494995;240;1058;-67
2021/09/08 01:56:10;;;;;;;;;;;19.80;65.70;;;;;;494956;240;1104;-67
2021/09/08 01:58:11;;;;;;;;;;;19.70;65.80;;;;;;494952;240;1066;-67
2021/09/08 02:00:13;;;;;;;;;;;19.70;66.00;;;;;;495244;240;1089;-67
2021/09/08 02:02:14;;;;;;;;;;;19.70;66.00;;;;;;494936;240;1212;-67
2021/09/08 02:04:15;;;;;;;;;;;19.80;65.80;;;;;;495020;240;1062;-67
2021/09/08 02:06:17;;;;;;;;;;;19.80;65.50;;;;;;494946;240;2132;-67
2021/09/08 02:08:20;;;;;;;;;;;19.80;65.50;;;;;;494986;240;1103;-67
2021/09/08 02:10:21;;;;;;;;;;;19.70;65.60;;;;;;494912;236;1401;-67
2021/09/08 02:12:23;;;;;;;;;;;19.70;65.70;;;;;;492231;234;3759;-69
2021/09/08 02:14:24;;;;;;;;;;;19.80;65.70;;;;;;490125;242;1040;-69
2021/09/08 02:16:25;;;;;;;;;;;19.90;65.30;;;;;;490030;242;1076;-66
2021/09/08 02:18:27;;;;;;;;;;;20.00;64.80;;;;;;490098;242;1108;-67
2021/09/08 02:20:28;;;;;;;;;;;20.20;64.30;;;;;;490106;242;1124;-67
2021/09/08 02:22:30;;;;;;;;;;;20.40;63.80;;;;;;490064;242;1112;-67
2021/09/08 02:24:31;;;;;;;;;;;20.40;63.50;;;;;;490195;242;1069;-67
2021/09/08 02:26:32;;;;;;;;;;;20.30;63.90;;;;;;490015;242;2189;-67
2021/09/08 02:28:34;;;;;;;;;;;20.10;64.40;;;;;;490253;242;1163;-66
2021/09/08 02:30:35;;;;;;;;;;;20.00;64.80;;;;;;490156;242;1070;-66
2021/09/08 02:32:36;;;;;;;;;;;19.90;65.10;;;;;;490142;242;1048;-66
2021/09/08 02:34:38;;;;;;;;;;;19.90;65.40;;;;;;490393;242;992;-66
2021/09/08 02:36:39;;;;;;;;;;;19.80;65.50;;;;;;490150;242;1017;-67
2021/09/08 02:38:40;;;;;;;;;;;19.80;65.50;;;;;;490436;242;1080;-66
2021/09/08 02:40:41;;;;;;;;;;;19.90;65.20;;;;;;490126;242;1041;-66
2021/09/08 02:42:43;;;;;;;;;;;20.00;64.90;;;;;;490246;242;1298;-66
2021/09/08 02:44:44;;;;;;;;;;;19.90;65.20;;;;;;490114;242;1132;-66
2021/09/08 02:46:45;;;;;;;;;;;19.80;65.50;;;;;;490199;242;2117;-66
2021/09/08 02:48:47;;;;;;;;;;;19.70;65.70;;;;;;490197;242;1112;-66
2021/09/08 02:50:48;;;;;;;;;;;19.70;65.80;;;;;;490497;242;1125;-66
2021/09/08 02:52:50;;;;;;;;;;;19.70;66.00;;;;;;490197;242;1117;-67
2021/09/08 02:54:51;;;;;;;;;;;19.70;65.90;;;;;;490489;242;1042;-66
2021/09/08 02:56:52;;;;;;;;;;;19.70;66.00;;;;;;490101;242;1028;-67
2021/09/08 02:58:54;;;;;;;;;;;19.70;66.00;;;;;;490083;242;1149;-66
2021/09/08 03:00:55;;;;;;;;;;;19.70;65.80;;;;;;490277;242;1138;-66
2021/09/08 03:02:56;;;;;;;;;;;19.80;65.50;;;;;;490158;242;1076;-67
2021/09/08 03:04:58;;;;;;;;;;;20.00;65.00;;;;;;490261;242;1269;-67
2021/09/08 03:06:59;;;;;;;;;;;20.00;64.90;;;;;;489967;242;2181;-67
2021/09/08 03:09:00;;;;;;;;;;;19.90;65.10;;;;;;490092;242;1098;-67
2021/09/08 03:11:02;;;;;;;;;;;19.80;65.20;;;;;;490175;242;1111;-67
2021/09/08 03:13:03;;;;;;;;;;;20.00;65.20;;;;;;490413;242;1168;-67
2021/09/08 03:15:04;;;;;;;;;;;20.10;64.60;;;;;;490164;242;1080;-67
2021/09/08 03:17:06;;;;;;;;;;;20.30;64.00;;;;;;490193;242;1246;-66
2021/09/08 03:19:07;;;;;;;;;;;20.20;64.00;;;;;;490163;242;1033;-66
2021/09/08 03:21:08;;;;;;;;;;;20.10;64.40;;;;;;490413;242;1244;-66
2021/09/08 03:23:10;;;;;;;;;;;20.00;64.80;;;;;;490047;242;1149;-66
2021/09/08 03:25:11;;;;;;;;;;;19.80;65.20;;;;;;490196;242;2205;-67
2021/09/08 03:27:13;;;;;;;;;;;19.80;65.60;;;;;;490225;242;1153;-66
2021/09/08 03:29:14;;;;;;;;;;;19.80;65.70;;;;;;490084;242;1260;-66
2021/09/08 03:31:15;;;;;;;;;;;19.70;65.70;;;;;;490075;242;1062;-66
2021/09/08 03:33:17;;;;;;;;;;;19.80;65.80;;;;;;490256;242;1247;-66
2021/09/08 03:35:18;;;;;;;;;;;19.90;65.30;;;;;;490087;242;1054;-67
2021/09/08 03:37:19;;;;;;;;;;;20.00;64.90;;;;;;490134;242;1136;-67
2021/09/08 03:39:21;;;;;;;;;;;19.90;64.80;;;;;;490056;242;1086;-66
2021/09/08 03:41:22;;;;;;;;;;;19.80;65.20;;;;;;490232;242;1043;-66
2021/09/08 03:43:23;;;;;;;;;;;19.80;65.50;;;;;;490288;242;1134;-66
2021/09/08 03:45:24;;;;;;;;;;;19.80;65.70;;;;;;490125;242;2185;-66
2021/09/08 03:47:26;;;;;;;;;;;19.70;65.80;;;;;;490158;242;1174;-66
2021/09/08 03:49:27;;;;;;;;;;;19.70;65.70;;;;;;490156;242;1029;-66
2021/09/08 03:51:28;;;;;;;;;;;19.80;65.50;;;;;;490205;242;1111;-66
2021/09/08 03:53:30;;;;;;;;;;;19.80;65.40;;;;;;490120;242;1151;-67
2021/09/08 03:55:31;;;;;;;;;;;19.70;65.60;;;;;;490097;242;1004;-67
2021/09/08 03:57:32;;;;;;;;;;;19.70;65.70;;;;;;490257;242;1204;-67
2021/09/08 03:59:34;;;;;;;;;;;19.70;65.90;;;;;;490113;242;1195;-67
2021/09/08 04:01:35;;;;;;;;;;;19.80;65.50;;;;;;490143;242;1142;-67
2021/09/08 04:03:36;;;;;;;;;;;19.80;65.50;;;;;;490079;242;1057;-66
2021/09/08 04:05:38;;;;;;;;;;;19.70;65.60;;;;;;490335;242;2189;-66
2021/09/08 04:07:39;;;;;;;;;;;19.70;65.80;;;;;;490008;242;955;-66
2021/09/08 04:09:40;;;;;;;;;;;19.90;65.30;;;;;;490235;242;1085;-67
2021/09/08 04:11:42;;;;;;;;;;;20.00;64.80;;;;;;489956;242;1051;-67
2021/09/08 04:13:43;;;;;;;;;;;19.90;65.00;;;;;;490038;242;1384;-66
2021/09/08 04:15:44;;;;;;;;;;;19.80;65.30;;;;;;490182;242;1063;-66
2021/09/08 04:17:46;;;;;;;;;;;19.70;65.60;;;;;;490215;242;1130;-66
2021/09/08 04:19:47;;;;;;;;;;;19.60;65.80;;;;;;490102;242;1115;-67
2021/09/08 04:21:48;;;;;;;;;;;19.70;66.00;;;;;;489968;242;1162;-66
2021/09/08 04:23:50;;;;;;;;;;;19.70;65.70;;;;;;489997;242;1118;-67
2021/09/08 04:25:51;;;;;;;;;;;20.00;65.10;;;;;;490002;242;2196;-66
2021/09/08 04:27:52;;;;;;;;;;;20.10;64.50;;;;;;490035;242;1130;-67
2021/09/08 04:29:54;;;;;;;;;;;20.00;64.60;;;;;;490242;242;1256;-67
2021/09/08 04:31:55;;;;;;;;;;;19.90;65.00;;;;;;490202;242;1180;-66
2021/09/08 04:33:56;;;;;;;;;;;19.80;65.20;;;;;;490133;242;1112;-66
2021/09/08 04:35:57;;;;;;;;;;;19.80;65.50;;;;;;489923;242;1244;-66
2021/09/08 04:37:59;;;;;;;;;;;19.80;65.60;;;;;;489975;242;1038;-66
2021/09/08 04:40:00;;;;;;;;;;;19.90;65.20;;;;;;490003;242;1144;-67
2021/09/08 04:42:01;;;;;;;;;;;19.90;65.20;;;;;;489852;242;1480;-67
2021/09/08 04:44:03;;;;;;;;;;;19.80;65.40;;;;;;489946;242;1036;-67
2021/09/08 04:46:04;;;;;;;;;;;19.70;65.50;;;;;;489947;242;2206;-67
2021/09/08 04:48:05;;;;;;;;;;;19.80;65.60;;;;;;490006;242;1100;-67
2021/09/08 04:50:07;;;;;;;;;;;19.90;65.10;;;;;;489992;242;1122;-67
2021/09/08 04:52:08;;;;;;;;;;;19.90;65.10;;;;;;489871;242;1097;-66
2021/09/08 04:54:09;;;;;;;;;;;19.90;65.20;;;;;;489850;242;1094;-66
2021/09/08 04:56:11;;;;;;;;;;;19.80;65.40;;;;;;489955;242;1072;-66
2021/09/08 04:58:12;;;;;;;;;;;19.70;65.60;;;;;;489931;242;1107;-67
2021/09/08 05:00:13;;;;;;;;;;;19.70;65.80;;;;;;489952;242;1144;-67
2021/09/08 05:02:15;;;;;;;;;;;19.80;65.50;;;;;;490044;242;1061;-67
2021/09/08 05:04:16;;;;;;;;;;;19.90;65.00;;;;;;490040;242;1151;-67
2021/09/08 05:06:17;;;;;;;;;;;19.90;64.90;;;;;;489790;242;2188;-67
2021/09/08 05:08:19;;;;;;;;;;;19.90;65.10;;;;;;489928;242;1175;-67
2021/09/08 05:10:20;;;;;;;;;;;19.80;65.30;;;;;;489921;242;1043;-66
2021/09/08 05:12:21;;;;;;;;;;;19.70;65.50;;;;;;489861;242;1237;-67
2021/09/08 05:14:23;;;;;;;;;;;19.70;65.70;;;;;;489940;242;1114;-67
2021/09/08 05:16:24;;;;;;;;;;;19.70;65.70;;;;;;489878;242;1100;-67
2021/09/08 05:18:26;;;;;;;;;;;19.80;65.30;;;;;;489997;242;1207;-67
2021/09/08 05:20:28;;;;;;;;;;;19.80;65.50;;;;;;489878;242;1071;-67
2021/09/08 05:22:28;;;;;;;;;;;19.80;65.50;;;;;;489832;242;1761;-67
2021/09/08 05:24:30;;;;;;;;;;;19.80;65.50;;;;;;489695;242;1190;-66
2021/09/08 05:26:31;;;;;;;;;;;19.70;65.60;;;;;;489542;242;2192;-66
2021/09/08 05:28:32;;;;;;;;;;;19.70;65.70;;;;;;489488;242;942;-67
2021/09/08 05:30:33;;;;;;;;;;;19.80;65.40;;;;;;489557;242;1132;-67
2021/09/08 05:32:35;;;;;;;;;;;19.90;65.20;;;;;;489372;242;1048;-67
2021/09/08 05:34:36;;;;;;;;;;;19.80;65.10;;;;;;489478;242;1043;-67
2021/09/08 05:36:37;;;;;;;;;;;19.80;65.40;;;;;;489436;242;1047;-67
2021/09/08 05:38:39;;;;;;;;;;;19.70;65.50;;;;;;489427;242;1051;-67
2021/09/08 05:40:40;;;;;;;;;;;19.90;65.10;;;;;;489331;242;1057;-67
2021/09/08 05:42:41;;;;;;;;;;;20.00;64.80;;;;;;489197;242;1109;-67
2021/09/08 05:44:43;;;;;;;;;;;20.00;64.60;;;;;;489396;242;1058;-67
2021/09/08 05:46:45;;;;;;;;;;;20.00;64.80;;;;;;489243;242;2225;-66
2021/09/08 05:48:45;;;;;;;;;;;20.00;64.90;;;;;;489316;242;1216;-67
2021/09/08 05:50:47;;;;;;;;;;;19.90;65.20;;;;;;489305;242;1462;-67
2021/09/08 05:52:48;;;;;;;;;;;19.80;65.30;;;;;;489354;242;1193;-67
2021/09/08 05:54:49;;;;;;;;;;;19.80;65.30;;;;;;489388;242;1085;-67
2021/09/08 05:56:51;;;;;;;;;;;19.90;65.10;;;;;;489352;242;1111;-67
2021/09/08 05:58:52;;;;;;;;;;;20.00;64.90;;;;;;489526;242;1103;-67
2021/09/08 06:00:53;;;;;;;;;;;20.10;64.50;;;;;;489290;242;1319;-67
2021/09/08 06:02:55;;;;;;;;;;;20.00;64.50;;;;;;489267;242;1040;-67
2021/09/08 06:04:56;;;;;;;;;;;19.90;64.80;;;;;;489458;242;1039;-67
2021/09/08 06:06:58;;;;;;;;;;;19.90;65.20;;;;;;489415;242;2198;-66
2021/09/08 06:08:59;;;;;;;;;;;19.80;65.40;;;;;;489383;242;1063;-67
2021/09/08 06:11:00;;;;;;;;;;;20.00;64.80;;;;;;489328;242;1349;-67
2021/09/08 06:13:01;;;;;;;;;;;20.10;64.30;;;;;;489376;242;1108;-67
2021/09/08 06:15:03;;;;;;;;;;;20.10;64.30;;;;;;489300;242;1113;-67
2021/09/08 06:17:04;;;;;;;;;;;19.90;64.70;;;;;;489295;242;1179;-67
2021/09/08 06:19:05;;;;;;;;;;;19.90;65.10;;;;;;489326;242;1053;-66
2021/09/08 06:21:07;;;;;;;;;;;19.80;65.30;;;;;;489258;242;1336;-66
2021/09/08 06:23:09;;;;;;;;;;;19.80;65.40;;;;;;489251;242;1079;-66
2021/09/08 06:25:10;;;;;;;;;;;19.80;65.40;;;;;;489254;243;1289;-67
2021/09/08 06:27:11;;;;;;;;;;;20.00;65.10;;;;;;489308;242;2189;-67
2021/09/08 06:29:13;;;;;;;;;;;20.10;64.50;;;;;;489348;242;1057;-67
2021/09/08 06:31:14;;;;;;;;;;;20.00;64.60;;;;;;489191;242;1127;-67
2021/09/08 06:33:15;;;;;;;;;;;19.90;64.90;;;;;;489187;242;1072;-67
2021/09/08 06:35:16;;;;;;;;;;;19.80;65.30;;;;;;489269;242;1150;-66
2021/09/08 06:37:18;;;;;;;;;;;19.70;65.60;;;;;;489236;242;1073;-67
2021/09/08 06:39:19;;;;;;;;;;;19.70;65.60;;;;;;489225;242;1119;-67
2021/09/08 06:41:20;;;;;;;;;;;19.80;65.50;;;;;;489064;242;1096;-67
2021/09/08 06:43:22;;;;;;;;;;;20.00;64.80;;;;;;488968;242;1108;-67
2021/09/08 06:45:23;;;;;;;;;;;20.20;64.20;;;;;;489165;242;1056;-67
2021/09/08 06:47:24;;;;;;;;;;;20.40;63.70;;;;;;489209;242;2181;-67
2021/09/08 06:49:26;;;;;;;;;;;20.50;63.20;;;;;;489069;242;1496;-67
2021/09/08 06:51:27;;;;;;;;;;;20.60;62.80;;;;;;489144;242;1248;-67
2021/09/08 06:53:28;;;;;;;;;;;20.70;62.60;;;;;;489120;242;1062;-67
2021/09/08 06:55:30;;;;;;;;;;;20.80;62.30;;;;;;489003;242;1087;-67
2021/09/08 06:57:31;;;;;;;;;;;20.80;62.10;;;;;;488791;242;1137;-67
2021/09/08 06:59:32;;;;;;;;;;;20.90;61.90;;;;;;488996;242;1064;-67
2021/09/08 07:01:34;;;;;;;;;;;20.90;61.70;;;;;;488985;242;1148;-67
2021/09/08 07:03:35;;;;;;;;;;;21.00;61.60;;;;;;489136;242;1086;-67
2021/09/08 07:05:36;;;;;;;;;;;21.00;61.50;;;;;;489098;242;1073;-69
2021/09/08 07:07:38;;;;;;;;;;;21.10;61.40;;;;;;489137;242;2177;-67
2021/09/08 07:09:39;;;;;;;;;;;21.10;61.20;;;;;;489181;242;1088;-67
2021/09/08 07:11:40;;;;;;;;;;;21.20;61.00;;;;;;489097;242;1221;-67
2021/09/08 07:13:42;;;;;;;;;;;21.20;60.80;;;;;;489142;242;1156;-67
2021/09/08 07:15:43;;;;;;;;;;;21.30;60.70;;;;;;488997;242;1102;-67
2021/09/08 07:17:44;;;;;;;;;;;21.40;60.60;;;;;;488758;240;1275;-67
2021/09/08 07:19:46;;;;;;;;;;;21.40;60.50;;;;;;489210;242;1083;-67
2021/09/08 07:21:47;;;;;;;;;;;21.40;60.50;;;;;;488771;242;1201;-67
2021/09/08 07:23:48;;;;;;;;;;;21.40;60.30;;;;;;488876;242;1111;-67
2021/09/08 07:25:50;;;;;;;;;;;21.40;60.30;;;;;;488876;242;1133;-67
2021/09/08 07:27:51;;;;;;;;;;;21.50;60.30;;;;;;488856;242;2237;-67
2021/09/08 07:29:53;;;;;;;;;;;21.50;60.20;;;;;;488919;242;1102;-66
2021/09/08 07:31:54;;;;;;;;;;;21.50;60.20;;;;;;488911;242;1186;-66
2021/09/08 07:33:55;;;;;;;;;;;21.50;60.20;;;;;;488939;242;1440;-67
2021/09/08 07:35:56;;;;;;;;;;;21.50;60.20;;;;;;488942;242;1103;-67
2021/09/08 07:38:00;;;;;;;;;;;21.60;60.10;;;;;;488997;242;1166;-67
2021/09/08 07:39:59;;;;;;;;;;;21.60;60.10;;;;;;488930;243;1392;-67
2021/09/08 07:42:01;;;;;;;;;;;21.60;60.10;;;;;;489114;242;1550;-67
2021/09/08 07:44:02;;;;;;;;;;;21.60;60.00;;;;;;488489;242;1129;-67
2021/09/08 07:46:03;;;;;;;;;;;21.60;60.00;;;;;;488650;242;1203;-67
2021/09/08 07:48:05;;;;;;;;;;;21.70;60.00;;;;;;488678;242;2205;-67
2021/09/08 07:50:06;;;;;;;;;;;21.70;60.00;;;;;;488808;242;1080;-67
2021/09/08 07:52:07;;;;;;;;;;;21.70;59.90;;;;;;488830;242;1082;-67
2021/09/08 07:54:09;;;;;;;;;;;21.70;59.90;;;;;;488958;242;1082;-67
2021/09/08 07:56:10;;;;;;;;;;;21.70;59.90;;;;;;489113;242;1094;-67
2021/09/08 07:58:11;;;;;;;;;;;21.70;59.80;;;;;;488986;242;1070;-67
2021/09/08 08:00:13;;;;;;;;;;;21.80;59.80;;;;;;489049;242;1084;-67
2021/09/08 08:02:14;;;;;;;;;;;21.80;59.70;;;;;;488964;242;1144;-67
2021/09/08 08:04:15;;;;;;;;;;;21.80;59.70;;;;;;488679;241;1159;-67
2021/09/08 08:06:17;;;;;;;;;;;21.80;59.70;;;;;;489002;242;1138;-67
2021/09/08 08:08:18;;;;;;;;;;;21.80;59.60;;;;;;489071;242;2193;-67
2021/09/08 08:10:19;;;;;;;;;;;21.80;59.60;;;;;;489061;242;1081;-67
2021/09/08 08:12:21;;;;;;;;;;;21.80;59.60;;;;;;488920;242;1179;-67
2021/09/08 08:14:22;;;;;;;;;;;21.90;59.60;;;;;;489125;242;1088;-67
2021/09/08 08:16:23;;;;;;;;;;;21.90;59.60;;;;;;489001;242;1223;-67
2021/09/08 08:18:25;;;;;;;;;;;21.90;59.50;;;;;;489039;242;1156;-67
2021/09/08 08:20:26;;;;;;;;;;;21.90;59.50;;;;;;489052;242;1066;-67
2021/09/08 08:22:27;;;;;;;;;;;21.90;59.50;;;;;;489528;242;1067;-67
2021/09/08 08:24:29;;;;;;;;;;;22.00;59.50;;;;;;489578;242;1099;-67
2021/09/08 08:26:30;;;;;;;;;;;21.90;59.50;;;;;;489519;242;1167;-66
2021/09/08 08:28:31;;;;;;;;;;;22.00;59.50;;;;;;489936;242;2192;-67
2021/09/08 08:30:33;;;;;;;;;;;22.00;59.40;;;;;;489431;242;1157;-67
2021/09/08 08:32:34;;;;;;;;;;;22.00;59.50;;;;;;489326;242;1239;-67
2021/09/08 08:34:35;;;;;;;;;;;22.00;59.40;;;;;;489278;242;878;-67
2021/09/08 08:36:36;;;;;;;;;;;22.00;59.40;;;;;;489725;242;1166;-67
2021/09/08 08:38:40;;;;;;;;;;;22.10;59.40;;;;;;489722;242;1131;-67
2021/09/08 08:40:39;;;;;;;;;;;22.00;59.40;;;;;;489250;243;1259;-67
2021/09/08 08:42:40;;;;;;;;;;;22.10;59.40;;;;;;489784;242;1330;-67
2021/09/08 08:44:42;;;;;;;;;;;22.00;59.40;;;;;;489442;242;906;-66
2021/09/08 08:46:43;;;;;;;;;;;22.00;59.40;;;;;;489397;242;893;-67
2021/09/08 08:48:44;;;;;;;;;;;22.10;59.40;;;;;;488860;240;2188;-67
2021/09/08 08:50:46;;;;;;;;;;;22.10;59.50;;;;;;489309;242;910;-67
2021/09/08 08:52:47;;;;;;;;;;;22.10;59.40;;;;;;489640;240;1259;-67
2021/09/08 08:54:48;;;;;;;;;;;22.10;59.50;;;;;;489558;242;908;-67
2021/09/08 08:56:50;;;;;;;;;;;22.10;59.50;;;;;;489797;242;817;-67
2021/09/08 08:58:51;;;;;;;;;;;22.10;59.50;;;;;;489567;242;829;-67
2021/09/08 09:00:52;;;;;;;;;;;22.10;59.40;;;;;;489286;242;923;-67
2021/09/08 09:02:54;;;;;;;;;;;22.10;59.40;;;;;;489498;242;1041;-67
2021/09/08 09:04:55;;;;;;;;;;;22.10;59.40;;;;;;489208;242;778;-67
2021/09/08 09:06:56;;;;;;;;;;;22.20;59.40;;;;;;489225;242;1424;-67
2021/09/08 09:08:58;;;;;;;;;;;22.20;59.40;;;;;;489658;242;2184;-67
2021/09/08 09:10:59;;;;;;;;;;;22.10;59.40;;;;;;489639;242;857;-67
2021/09/08 09:13:00;;;;;;;;;;;22.10;59.40;;;;;;489471;242;907;-67
2021/09/08 09:15:02;;;;;;;;;;;22.20;59.30;;;;;;487745;240;1090;-67
2021/09/08 09:17:03;;;;;;;;;;;22.20;59.30;;;;;;489466;242;1473;-67
2021/09/08 09:19:04;;;;;;;;;;;22.20;59.30;;;;;;489114;242;1101;-67
2021/09/08 09:21:06;;;;;;;;;;;22.20;59.30;;;;;;489472;242;850;-67
2021/09/08 09:23:07;;;;;;;;;;;22.20;59.30;;;;;;489521;242;830;-67
2021/09/08 09:25:08;;;;;;;;;;;22.20;59.30;;;;;;489167;242;763;-67
2021/09/08 09:27:09;;;;;;;;;;;22.20;59.20;;;;;;489163;242;851;-67
2021/09/08 09:29:11;;;;;;;;;;;22.20;59.20;;;;;;489646;242;2248;-67
2021/09/08 09:31:12;;;;;;;;;;;22.20;59.20;;;;;;489552;242;816;-67
2021/09/08 09:33:14;;;;;;;;;;;22.20;59.20;;;;;;489570;242;1192;-67
2021/09/08 09:35:15;;;;;;;;;;;22.20;59.20;;;;;;489696;242;851;-67
2021/09/08 09:37:16;;;;;;;;;;;22.30;59.20;;;;;;489477;242;868;-67
2021/09/08 09:39:18;;;;;;;;;;;22.30;59.20;;;;;;489123;242;843;-67
2021/09/08 09:41:19;;;;;;;;;;;22.30;59.10;;;;;;489145;242;884;-67
2021/09/08 09:43:20;;;;;;;;;;;22.30;59.20;;;;;;489486;242;781;-67
2021/09/08 09:45:21;;;;;;;;;;;22.30;59.20;;;;;;489028;242;821;-67
2021/09/08 09:47:23;;;;;;;;;;;22.30;59.20;;;;;;489037;242;1218;-67
2021/09/08 09:49:24;;;;;;;;;;;22.30;59.20;;;;;;488929;242;2193;-67
2021/09/08 09:51:25;;;;;;;;;;;22.30;59.10;;;;;;488765;242;1506;-67
2021/09/08 09:53:27;;;;;;;;;;;22.40;59.10;;;;;;489266;242;842;-67
2021/09/08 09:55:28;;;;;;;;;;;22.30;59.00;;;;;;489309;242;726;-67
2021/09/08 09:57:30;;;;;;;;;;;22.40;59.10;;;;;;488822;242;1033;-67
2021/09/08 09:59:31;;;;;;;;;;;22.40;59.10;;;;;;489302;242;1504;-66
2021/09/08 10:01:33;;;;;;;;;;;22.40;59.00;;;;;;489321;242;1463;-67
2021/09/08 10:03:34;;;;;;;;;;;22.40;59.00;;;;;;489717;242;1108;-67
2021/09/08 10:05:35;;;;;;;;;;;22.40;59.00;;;;;;489191;242;837;-67
2021/09/08 10:07:36;;;;;;;;;;;22.40;59.00;;;;;;489716;242;2272;-67
2021/09/08 10:09:38;;;;;;;;;;;22.40;59.00;;;;;;489717;242;640;-67
2021/09/08 10:11:44;;;;;;;;;;;22.40;59.00;;;;;;489271;242;1166;-67
2021/09/08 10:13:40;;;;;;;;;;;22.40;59.00;;;;;;488763;243;1340;-67
2021/09/08 10:15:43;;;;;;;;;;;22.40;59.00;;;;;;488877;242;833;-67
2021/09/08 10:17:43;;;;;;;;;;;22.40;59.00;;;;;;488511;243;1262;-67
2021/09/08 10:19:44;;;;;;;;;;;22.40;59.00;;;;;;488655;242;1140;-67
2021/09/08 10:21:46;;;;;;;;;;;22.40;58.90;;;;;;488975;242;774;-67
2021/09/08 10:23:47;;;;;;;;;;;22.50;59.00;;;;;;489127;242;770;-67
2021/09/08 10:25:49;;;;;;;;;;;22.50;58.90;;;;;;488729;242;791;-67
2021/09/08 10:27:50;;;;;;;;;;;22.50;58.90;;;;;;488909;242;2201;-67
2021/09/08 10:29:51;;;;;;;;;;;22.50;58.90;;;;;;489445;242;758;-67
2021/09/08 10:31:53;;;;;;;;;;;22.50;58.90;;;;;;488676;242;742;-67
2021/09/08 10:33:54;;;;;;;;;;;22.50;58.90;;;;;;488871;242;1297;-67
2021/09/08 10:35:55;;;;;;;;;;;22.50;58.90;;;;;;489685;242;1073;-67
2021/09/08 10:37:57;;;;;;;;;;;22.50;58.90;;;;;;489829;242;1062;-67
2021/09/08 10:39:58;;;;;;;;;;;22.50;58.90;;;;;;489906;242;874;-67
2021/09/08 10:41:59;;;;;;;;;;;22.50;58.80;;;;;;489270;242;869;-67
2021/09/08 10:44:01;;;;;;;;;;;22.50;58.80;;;;;;489201;242;850;-67
2021/09/08 10:46:02;;;;;;;;;;;22.50;58.80;;;;;;489682;242;845;-67
2021/09/08 10:48:03;;;;;;;;;;;22.50;58.80;;;;;;489680;242;2181;-67
2021/09/08 10:50:05;;;;;;;;;;;22.60;58.90;;;;;;489493;242;1098;-67
2021/09/08 10:52:06;;;;;;;;;;;22.60;58.90;;;;;;488890;242;1216;-67
2021/09/08 10:54:07;;;;;;;;;;;22.60;58.90;;;;;;489362;242;854;-67
2021/09/08 10:56:09;;;;;;;;;;;22.60;58.90;;;;;;489515;242;864;-67
2021/09/08 10:58:10;;;;;;;;;;;22.60;58.80;;;;;;489747;242;858;-67
2021/09/08 11:00:12;;;;;;;;;;;22.60;58.80;;;;;;490003;242;839;-67
2021/09/08 11:02:13;;;;;;;;;;;22.60;58.80;;;;;;489339;242;1133;-67
2021/09/08 11:04:14;;;;;;;;;;;22.60;58.80;;;;;;489363;242;1166;-67
2021/09/08 11:06:15;;;;;;;;;;;22.60;58.80;;;;;;489431;242;1050;-67
2021/09/08 11:08:17;;;;;;;;;;;22.60;58.70;;;;;;489483;242;2185;-67
2021/09/08 11:10:18;;;;;;;;;;;22.60;58.70;;;;;;490032;242;862;-67
2021/09/08 11:12:19;;;;;;;;;;;22.60;58.70;;;;;;490109;242;952;-67
2021/09/08 11:14:21;;;;;;;;;;;22.60;58.80;;;;;;490157;242;885;-67
2021/09/08 11:16:22;;;;;;;;;;;22.60;58.70;;;;;;489750;240;1155;-67
2021/09/08 11:18:23;;;;;;;;;;;22.60;58.70;;;;;;489607;242;889;-67
2021/09/08 11:20:25;;;;;;;;;;;22.70;58.70;;;;;;489539;242;1125;-67
2021/09/08 11:22:26;;;;;;;;;;;22.70;58.70;;;;;;490073;242;1069;-67
2021/09/08 11:24:27;;;;;;;;;;;22.70;58.70;;;;;;490177;242;917;-67
2021/09/08 11:26:30;;;;;;;;;;;22.70;58.60;;;;;;489857;242;1121;-67
2021/09/08 11:28:30;;;;;;;;;;;22.90;58.10;;;;;;489549;242;2201;-67
2021/09/08 11:30:31;;;;;;;;;;;23.00;57.90;;;;;;489396;242;1199;-67
2021/09/08 11:32:33;;;;;;;;;;;22.80;58.40;;;;;;489739;242;1077;-67
2021/09/08 11:34:36;;;;;;;;;;;22.40;59.30;;;;;;489714;242;1273;-67
2021/09/08 11:36:36;;;;;;;;;;;22.10;60.30;;;;;;489182;242;1355;-67
2021/09/08 11:38:37;;;;;;;;;;;21.90;61.00;;;;;;489395;242;1383;-67
2021/09/08 11:40:38;;;;;;;;;;;21.70;61.50;;;;;;489834;242;936;-66
2021/09/08 11:42:39;;;;;;;;;;;21.60;62.00;;;;;;489973;242;1056;-67
2021/09/08 11:44:41;;;;;;;;;;;21.50;62.40;;;;;;489969;242;841;-67
2021/09/08 11:46:42;;;;;;;;;;;21.40;62.80;;;;;;489835;242;1031;-67
2021/09/08 11:48:43;;;;;;;;;;;21.20;63.10;;;;;;489863;242;2193;-67
2021/09/08 11:50:44;;;;;;;;;;;21.20;63.20;;;;;;489496;242;1191;-67
2021/09/08 11:52:46;;;;;;;;;;;21.20;63.20;;;;;;489744;242;1108;-67
2021/09/08 11:54:47;;;;;;;;;;;21.20;63.40;;;;;;489887;242;842;-67
2021/09/08 11:56:48;;;;;;;;;;;21.20;63.60;;;;;;489345;242;1195;-67